Time;durP1;ratioP1;P1;durP2;ratioP2;P2;SDS_P1;SDS_P2;PMS_P1;PMS_P2;Temp;Humidity;BMP_temperature;BMP_pressure;BME280_temperature;BME280_humidity;BME280_pressure;Samples;Min_cycle;Max_cycle;Signal;HPM_P1;HPM_P2
2022/10/06 16:53:36;;;;;;;9.23;3.55;;;;;;;22.85;53.91;101563.75;5115832;27;20384;-84
2022/10/06 16:56:03;;;;;;;10.00;3.75;;;;;;;22.61;54.29;101559.03;5117868;28;20032;-84
2022/10/06 16:58:34;;;;;;;15.07;4.10;;;;;;;22.70;54.76;101559.94;5114414;28;20024;-84
2022/10/06 17:01:00;;;;;;;7.82;3.05;;;;;;;22.40;54.29;101556.69;5111494;28;20031;-84
2022/10/06 17:03:25;;;;;;;7.97;2.65;;;;;;;22.60;54.65;101559.19;5112437;28;20039;-84
2022/10/06 17:05:51;;;;;;;9.30;2.50;;;;;;;22.52;54.89;101555.44;5109870;28;20035;-85
2022/10/06 17:08:18;;;;;;;15.18;2.70;;;;;;;22.17;55.02;101554.41;5115549;28;20028;-84
2022/10/06 17:10:43;;;;;;;12.65;2.10;;;;;;;22.22;55.44;101553.97;5101945;28;20043;-85
2022/10/06 17:13:09;;;;;;;10.05;2.28;;;;;;;22.12;58.28;101548.72;5110519;28;20050;-84
2022/10/06 17:15:34;;;;;;;10.60;2.10;;;;;;;21.94;58.56;101550.53;5110468;28;20358;-84
2022/10/06 17:18:00;;;;;;;8.60;2.17;;;;;;;21.87;57.57;101560.13;5107428;28;20118;-84
2022/10/06 17:20:25;;;;;;;6.38;1.42;;;;;;;21.77;58.28;101554.84;5108483;28;20023;-82
2022/10/06 17:22:51;;;;;;;9.43;1.60;;;;;;;21.71;57.69;101556.28;5109718;28;20042;-82
2022/10/06 17:25:17;;;;;;;9.27;1.92;;;;;;;21.72;61.24;101554.44;5108791;28;20020;-85
2022/10/06 17:27:42;;;;;;;9.88;2.35;;;;;;;21.60;59.16;101551.13;5110287;28;20034;-83
2022/10/06 17:30:08;;;;;;;9.80;1.88;;;;;;;21.67;58.85;101560.25;5108323;28;20054;-86
2022/10/06 17:32:33;;;;;;;12.10;2.30;;;;;;;21.57;58.21;101546.09;5104681;28;20036;-84
2022/10/06 17:34:59;;;;;;;8.57;2.40;;;;;;;21.39;58.89;101557.53;5107032;28;20462;-86
2022/10/06 17:37:25;;;;;;;14.20;2.60;;;;;;;21.37;59.68;101558.69;5109178;28;20069;-86
2022/10/06 17:39:50;;;;;;;16.55;3.45;;;;;;;21.34;59.38;101554.44;5107789;28;20043;-86
2022/10/06 17:42:16;;;;;;;12.30;3.05;;;;;;;21.19;59.57;101556.75;5108799;28;20024;-86
2022/10/06 17:44:41;;;;;;;7.60;2.15;;;;;;;21.19;60.55;101563.94;5108522;28;20026;-85
2022/10/06 17:47:11;;;;;;;11.45;3.00;;;;;;;21.12;61.47;101560.16;5109057;28;20070;-86
2022/10/06 17:49:36;;;;;;;11.88;2.85;;;;;;;20.90;60.40;101564.84;5106791;28;20035;-86
2022/10/06 17:52:03;;;;;;;11.90;3.05;;;;;;;20.88;61.68;101564.16;5107868;28;20028;-85
2022/10/06 17:54:32;;;;;;;9.88;2.58;;;;;;;20.94;61.38;101566.25;5106437;28;20030;-85
2022/10/06 17:56:58;;;;;;;17.45;2.78;;;;;;;20.80;62.33;101569.38;5108244;28;20019;-86
2022/10/06 17:59:29;;;;;;;11.70;2.20;;;;;;;20.87;62.30;101567.78;5107382;28;20488;-86
2022/10/06 18:01:56;;;;;;;9.65;2.08;;;;;;;20.82;62.24;101570.06;5108573;28;20377;-84
2022/10/06 18:04:22;;;;;;;8.77;2.00;;;;;;;20.55;63.15;101573.41;5096193;28;20462;-86
2022/10/06 18:06:51;;;;;;;9.25;2.17;;;;;;;20.52;64.90;101573.72;5094515;28;20393;-86
2022/10/06 18:09:17;;;;;;;10.93;2.53;;;;;;;20.14;65.68;101573.56;5094252;28;20034;-86
2022/10/06 18:11:46;;;;;;;14.23;2.92;;;;;;;20.39;64.55;101579.31;5094642;28;20036;-86
2022/10/06 18:19:39;;;;;;;26.05;3.10;;;;;;;22.91;80.61;101579.19;5128850;27;20919;-79
2022/10/06 18:22:08;;;;;;;16.02;1.73;;;;;;;23.45;77.41;101579.00;5119477;27;20039;-82
2022/10/06 18:24:34;;;;;;;13.48;1.60;;;;;;;23.87;74.50;101572.81;5060874;27;20043;-70
2022/10/06 18:27:00;;;;;;;19.02;2.88;;;;;;;23.93;74.10;101571.34;5064702;28;20029;-70
2022/10/06 18:29:31;;;;;;;54.17;3.05;;;;;;;23.98;73.76;101585.13;5076879;28;20452;-72
2022/10/06 18:31:57;;;;;;;13.85;1.73;;;;;;;24.24;72.15;101582.31;5072004;28;20016;-71
2022/10/06 18:34:22;;;;;;;6.53;1.63;;;;;;;24.20;72.35;101585.50;5066886;28;20025;-71
2022/10/06 18:36:48;;;;;;;6.95;1.10;;;;;;;24.14;72.46;101587.00;5073695;28;20020;-71
2022/10/06 18:39:13;;;;;;;7.13;1.75;;;;;;;24.07;73.01;101584.13;5063489;28;20021;-71
2022/10/06 18:41:39;;;;;;;7.50;1.40;;;;;;;24.09;72.66;101587.50;5060517;28;20474;-71
2022/10/06 18:44:06;;;;;;;6.03;1.17;;;;;;;23.99;73.54;101588.63;5079263;28;20024;-71
2022/10/06 18:49:19;;;;;;;8.45;1.60;;;;;;;23.86;73.67;101586.44;5083180;28;20075;-71
2022/10/06 18:51:47;;;;;;;7.72;1.25;;;;;;;23.83;74.53;101582.22;5070536;28;20096;-71
2022/10/06 18:54:20;;;;;;;8.85;1.90;;;;;;;23.81;75.08;101584.22;5086102;28;20437;-71
2022/10/06 18:56:50;;;;;;;7.80;1.40;;;;;;;23.79;75.30;101585.38;5068844;28;20071;-72
2022/10/06 18:59:18;;;;;;;13.65;1.77;;;;;;;23.81;76.07;101588.75;5066041;28;20058;-72
2022/10/06 19:01:45;;;;;;;8.82;1.80;;;;;;;23.82;76.65;101580.53;5080045;28;20025;-72
2022/10/06 19:04:13;;;;;;;8.43;1.38;;;;;;;23.83;78.07;101592.09;5066739;28;20474;-72
2022/10/06 19:06:48;;;;;;;6.43;1.75;;;;;;;23.86;78.66;101586.44;5078285;28;20032;-72
2022/10/06 19:09:15;;;;;;;12.80;1.30;;;;;;;23.84;79.47;101583.06;5054467;28;20382;-72
2022/10/06 19:11:48;;;;;;;11.43;1.50;;;;;;;23.85;79.75;101579.38;5067569;28;20039;-72
2022/10/06 19:14:18;;;;;;;8.35;1.35;;;;;;;23.89;80.65;101586.91;5067015;28;20504;-72
2022/10/06 19:16:44;;;;;;;5.82;0.90;;;;;;;24.00;80.76;101584.97;5064710;28;20032;-71
2022/10/06 19:19:13;;;;;;;10.02;1.65;;;;;;;24.04;80.98;101587.13;5065894;28;20035;-71
2022/10/06 19:21:41;;;;;;;6.75;1.00;;;;;;;24.06;80.40;101586.97;5066164;28;20535;-71
2022/10/06 19:24:09;;;;;;;6.50;1.42;;;;;;;24.01;80.56;101587.44;5068424;28;20410;-71
2022/10/06 19:26:35;;;;;;;13.82;1.10;;;;;;;24.06;80.32;101582.44;5082215;28;20414;-71
2022/10/06 19:29:05;;;;;;;5.68;1.10;;;;;;;24.07;80.48;101584.13;5079875;28;20107;-71
2022/10/06 19:31:30;;;;;;;9.00;1.33;;;;;;;24.09;80.11;101587.50;5061741;28;20025;-71
2022/10/06 19:34:00;;;;;;;4.80;1.50;;;;;;;24.11;79.84;101585.50;5052269;28;20032;-71
2022/10/06 19:36:28;;;;;;;5.40;0.90;;;;;;;24.11;79.89;101581.94;5054350;28;20049;-71
2022/10/06 19:38:56;;;;;;;5.35;1.00;;;;;;;24.13;79.63;101587.97;5058306;28;20133;-71
2022/10/06 19:44:09;;;;;;;3.28;0.90;;;;;;;24.18;78.85;101582.97;5062074;28;20390;-71
2022/10/06 19:46:36;;;;;;;5.00;1.17;;;;;;;24.03;79.46;101582.78;5065330;28;20029;-71
2022/10/06 19:49:04;;;;;;;2.83;1.05;;;;;;;24.19;78.64;101581.13;5073857;28;20028;-71
2022/10/06 19:51:34;;;;;;;4.88;1.23;;;;;;;24.20;78.21;101577.44;5059800;28;20029;-71
2022/10/06 19:54:01;;;;;;;2.80;0.95;;;;;;;24.21;78.22;101573.75;5059380;28;20028;-71
2022/10/06 19:56:29;;;;;;;5.25;1.13;;;;;;;24.22;78.00;101578.94;5070999;28;20052;-71
2022/10/06 19:58:58;;;;;;;5.22;1.20;;;;;;;24.25;77.62;101580.47;5066032;28;20025;-71
2022/10/06 20:01:24;;;;;;;5.22;1.45;;;;;;;24.24;77.38;101576.09;5066130;28;20119;-71
2022/10/06 20:03:49;;;;;;;3.28;0.90;;;;;;;24.25;77.26;101575.09;5053700;28;20490;-71
2022/10/06 20:06:15;;;;;;;6.85;1.55;;;;;;;24.24;76.93;101570.75;5053720;28;20100;-71
2022/10/06 20:08:42;;;;;;;6.32;1.35;;;;;;;24.24;76.82;101573.44;5061375;28;20620;-71
2022/10/06 20:11:12;;;;;;;4.93;0.80;;;;;;;24.24;76.44;101568.06;5072734;28;20371;-71
2022/10/06 20:13:38;;;;;;;4.32;1.00;;;;;;;24.24;76.02;101578.78;5073725;28;20390;-71
2022/10/06 20:16:07;;;;;;;6.05;1.05;;;;;;;24.24;75.97;101574.25;5051553;28;20105;-71
2022/10/06 20:18:44;;;;;;;3.67;1.10;;;;;;;24.25;75.72;101581.31;5053512;28;20033;-71
2022/10/06 20:21:23;;;;;;;5.53;0.90;;;;;;;24.24;75.52;101574.25;5053889;28;20379;-71
2022/10/06 20:23:55;;;;;;;4.00;0.85;;;;;;;24.26;75.50;101571.41;5062761;28;20025;-71
2022/10/06 20:26:23;;;;;;;;;;;;;;;24.30;75.07;101572.75;5060385;28;20024;-71
2022/10/06 20:28:49;;;;;;;2.85;0.80;;;;;;;24.29;74.83;101579.13;5059070;28;19917;-71
2022/10/06 20:31:24;;;;;;;6.10;1.08;;;;;;;24.29;75.01;101579.13;5054075;28;20040;-71
2022/10/06 20:33:51;;;;;;;6.50;1.10;;;;;;;24.23;74.54;101580.66;5051912;28;20029;-71
2022/10/06 20:36:17;;;;;;;3.13;1.05;;;;;;;24.22;74.42;101580.81;5049842;28;20028;-72
2022/10/06 20:41:29;;;;;;;4.57;0.80;;;;;;;24.22;74.51;101586.16;5049271;28;20540;-72
2022/10/06 20:43:59;;;;;;;7.22;1.40;;;;;;;24.21;74.23;101584.47;5050938;28;20089;-72
2022/10/06 20:46:30;;;;;;;5.55;0.75;;;;;;;24.20;74.30;101586.31;5045815;28;20028;-72
2022/10/06 20:49:01;;;;;;;4.23;1.03;;;;;;;24.19;74.08;101589.16;5051571;28;20060;-72
2022/10/06 20:51:27;;;;;;;5.78;0.93;;;;;;;24.19;74.03;101591.84;5052405;28;20029;-71
2022/10/06 20:53:53;;;;;;;2.30;0.47;;;;;;;24.17;74.18;101588.50;5046993;28;20111;-72
2022/10/06 20:56:18;;;;;;;2.88;0.80;;;;;;;24.16;74.35;101584.97;5052574;28;20536;-72
2022/10/06 20:58:44;;;;;;;9.18;0.80;;;;;;;24.14;74.11;101576.25;5069355;28;20032;-72
2022/10/06 21:01:12;;;;;;;3.85;0.88;;;;;;;24.14;74.32;101569.03;5049866;28;20467;-72
2022/10/06 21:03:47;;;;;;;4.43;0.80;;;;;;;24.12;74.28;101571.06;5050405;28;20476;-72
2022/10/06 21:06:14;;;;;;;1.95;0.50;;;;;;;24.10;74.26;101575.75;5052477;28;20021;-72
2022/10/06 21:08:42;;;;;;;4.70;1.08;;;;;;;24.09;74.19;101576.75;5039634;28;20025;-72
2022/10/06 21:11:12;;;;;;;5.20;0.90;;;;;;;24.06;73.94;101573.56;5054775;28;20140;-72
2022/10/06 21:13:38;;;;;;;3.63;0.70;;;;;;;24.07;74.20;101573.41;5048864;28;20042;-72
2022/10/06 21:16:04;;;;;;;3.17;0.70;;;;;;;24.06;73.97;101566.34;5049993;28;20171;-72
2022/10/06 21:18:30;;;;;;;1.58;0.68;;;;;;;24.06;74.08;101560.16;5052352;28;20123;-72
2022/10/06 21:20:59;;;;;;;1.50;0.60;;;;;;;24.07;73.98;101559.13;5052355;28;20039;-72
2022/10/06 21:23:28;;;;;;;2.03;0.70;;;;;;;24.07;73.90;101556.44;5050979;28;20475;-72
2022/10/06 21:25:55;;;;;;;1.20;0.70;;;;;;;24.05;73.82;101559.31;5052171;28;20033;-72
2022/10/06 21:28:24;;;;;;;2.35;0.60;;;;;;;24.02;74.13;101556.97;5042579;28;20467;-72
2022/10/06 21:30:50;;;;;;;2.55;0.80;;;;;;;23.98;73.78;101558.28;5046640;28;20033;-72
2022/10/06 21:33:16;;;;;;;2.97;0.60;;;;;;;23.99;74.08;101549.22;5048358;28;20108;-71
2022/10/06 21:35:41;;;;;;;3.00;0.77;;;;;;;23.97;73.95;101556.59;5052893;28;20104;-72
2022/10/06 21:38:10;;;;;;;6.78;0.90;;;;;;;23.97;74.16;101540.50;5070728;28;20040;-72
2022/10/06 21:40:36;;;;;;;2.83;0.70;;;;;;;23.97;73.80;101542.34;5071642;28;20497;-72
2022/10/06 21:43:02;;;;;;;5.38;0.80;;;;;;;23.96;73.64;101536.16;5057852;28;20037;-72
2022/10/06 21:45:30;;;;;;;1.67;0.70;;;;;;;23.95;73.90;101537.16;5044617;28;20028;-72
2022/10/06 21:47:56;;;;;;;3.47;1.15;;;;;;;23.92;73.91;101524.91;5051823;28;20047;-72
2022/10/06 21:50:21;;;;;;;1.58;0.63;;;;;;;23.90;73.96;101524.22;5051843;28;20052;-72
2022/10/06 21:52:46;;;;;;;4.53;1.38;;;;;;;23.90;73.80;101518.03;5051679;28;20487;-72
2022/10/06 21:55:12;;;;;;;3.42;0.90;;;;;;;23.88;74.05;101512.00;5051249;28;20027;-72
2022/10/06 21:57:37;;;;;;;2.35;0.60;;;;;;;23.88;74.04;101512.00;5050702;28;20060;-72
2022/10/06 22:00:04;;;;;;;3.25;0.80;;;;;;;23.88;73.88;101520.06;5050562;28;20024;-72
2022/10/06 22:02:30;;;;;;;1.63;0.60;;;;;;;23.87;73.70;101500.41;5051156;28;20074;-72
2022/10/06 22:04:55;;;;;;;2.55;0.95;;;;;;;23.86;73.68;101508.66;5050098;28;20029;-72
2022/10/06 22:07:21;;;;;;;2.45;0.93;;;;;;;23.84;73.83;101497.25;5051281;28;20067;-71
2022/10/06 22:09:46;;;;;;;2.00;0.50;;;;;;;23.85;73.81;101499.75;5051772;28;20020;-72
2022/10/06 22:12:11;;;;;;;1.27;0.60;;;;;;;23.83;73.73;101491.03;5050250;28;20025;-72
2022/10/06 22:14:37;;;;;;;3.28;0.90;;;;;;;23.84;73.56;101486.53;5050141;28;20033;-72
2022/10/06 22:17:03;;;;;;;2.50;0.70;;;;;;;23.84;73.66;101486.53;5050832;28;20037;-72
2022/10/06 22:19:29;;;;;;;2.60;1.10;;;;;;;23.79;73.72;101478.94;5051288;28;20037;-72
2022/10/06 22:21:54;;;;;;;2.45;0.57;;;;;;;23.80;74.09;101474.44;5051684;28;20075;-72
2022/10/06 22:24:20;;;;;;;1.70;0.45;;;;;;;23.76;73.96;101472.06;5051646;28;20445;-72
2022/10/06 22:26:47;;;;;;;4.00;0.82;;;;;;;23.78;74.14;101468.41;5051653;28;20430;-72
2022/10/06 22:29:15;;;;;;;2.47;0.70;;;;;;;23.76;73.86;101469.38;5051558;28;20025;-72
2022/10/06 22:31:42;;;;;;;2.13;0.50;;;;;;;23.75;74.02;101469.53;5050552;28;20087;-72
2022/10/06 22:34:10;;;;;;;3.97;0.60;;;;;;;23.74;73.85;101470.53;5051687;28;20029;-72
2022/10/06 22:36:36;;;;;;;3.08;0.55;;;;;;;23.74;73.91;101466.00;5051660;28;20494;-72
2022/10/06 22:39:01;;;;;;;3.22;0.75;;;;;;;23.72;74.06;101467.19;5051412;28;20033;-72
2022/10/06 22:41:27;;;;;;;4.38;0.85;;;;;;;23.71;74.03;101463.66;5051508;28;20033;-72
2022/10/06 22:43:56;;;;;;;5.78;0.80;;;;;;;23.70;74.37;101464.66;5051896;28;20033;-72
2022/10/06 22:46:23;;;;;;;1.83;0.60;;;;;;;23.69;74.14;101454.94;5050977;28;20033;-72
2022/10/06 22:48:49;;;;;;;4.07;0.63;;;;;;;23.68;74.16;101455.94;5051335;28;20028;-72
2022/10/06 22:51:14;;;;;;;3.55;0.55;;;;;;;23.68;74.32;101455.13;5051488;28;20390;-72
2022/10/06 22:53:39;;;;;;;1.73;0.63;;;;;;;23.65;74.28;101453.59;5051502;28;20052;-72
2022/10/06 22:56:05;;;;;;;4.05;0.90;;;;;;;23.65;74.32;101447.41;5051388;28;20032;-72
2022/10/06 22:58:31;;;;;;;2.63;0.70;;;;;;;23.64;74.26;101451.94;5051182;28;20033;-72
2022/10/06 23:00:56;;;;;;;1.55;0.57;;;;;;;23.64;74.35;101451.94;5050592;28;20036;-72
2022/10/06 23:03:22;;;;;;;2.13;0.70;;;;;;;23.62;74.25;101448.56;5051231;28;20025;-72
2022/10/06 23:05:59;;;;;;;4.68;0.90;;;;;;;23.63;74.47;101442.19;5053819;28;20059;-72
2022/10/06 23:08:25;;;;;;;1.92;0.80;;;;;;;23.60;74.40;101442.53;5054981;28;20474;-72
2022/10/06 23:10:52;;;;;;;1.80;0.65;;;;;;;23.59;74.28;101431.97;5054957;28;20021;-72
2022/10/06 23:13:18;;;;;;;2.72;0.77;;;;;;;23.58;74.38;101439.19;5055020;28;20061;-72
2022/10/06 23:15:44;;;;;;;4.97;0.70;;;;;;;23.56;74.36;101435.81;5053881;28;20056;-72
2022/10/06 23:18:09;;;;;;;3.10;0.70;;;;;;;;;;5053417;28;20064;-71
2022/10/06 23:20:34;;;;;;;3.42;0.70;;;;;;;23.54;74.65;101416.41;5054872;28;20025;-72
2022/10/06 23:23:00;;;;;;;1.75;0.70;;;;;;;23.57;74.41;101426.75;5054738;28;20032;-72
2022/10/06 23:25:25;;;;;;;2.53;0.70;;;;;;;23.53;74.32;101420.88;5054738;28;20482;-72
2022/10/06 23:27:51;;;;;;;2.00;0.60;;;;;;;23.51;74.43;101422.06;5054541;28;20033;-72
2022/10/06 23:30:16;;;;;;;3.38;0.70;;;;;;;23.51;74.83;101422.06;5051712;28;20039;-72
2022/10/06 23:32:42;;;;;;;1.90;0.60;;;;;;;23.51;74.81;101408.66;5054817;28;20112;-72
2022/10/06 23:35:08;;;;;;;4.10;1.00;;;;;;;23.51;74.82;101412.19;5054496;28;20470;-72
2022/10/06 23:37:34;;;;;;;2.40;0.60;;;;;;;23.51;74.89;101408.66;5054357;28;20029;-72
2022/10/06 23:40:00;;;;;;;3.95;0.70;;;;;;;23.49;74.72;101405.31;5054443;28;20055;-72
2022/10/06 23:42:26;;;;;;;1.00;0.32;;;;;;;23.48;74.59;101406.31;5054366;28;20074;-72
2022/10/06 23:44:52;;;;;;;5.57;0.60;;;;;;;23.47;74.40;101401.97;5053425;28;20082;-72
2022/10/06 23:47:17;;;;;;;1.00;0.30;;;;;;;23.47;74.86;101404.63;5054142;28;20021;-72
2022/10/06 23:49:43;;;;;;;2.53;0.90;;;;;;;23.45;74.94;101409.31;5054370;28;20040;-72
2022/10/06 23:52:08;;;;;;;3.38;0.70;;;;;;;23.44;74.95;101410.31;5054095;28;20029;-72
2022/10/06 23:54:34;;;;;;;2.05;0.68;;;;;;;23.44;74.75;101399.59;5054384;28;20028;-72
2022/10/06 23:56:59;;;;;;;2.20;0.68;;;;;;;23.42;74.97;101396.25;5054134;28;20029;-72
2022/10/06 23:59:26;;;;;;;0.75;0.50;;;;;;;23.42;74.90;101398.91;5053155;28;20024;-72
